createdAt,value
2022-08-08T00:00:57.689Z,60.53
2022-08-08T00:03:20.088Z,59.08
2022-08-08T00:06:02.939Z,60.70
2022-08-08T00:08:41.122Z,59.61
2022-08-08T00:11:47.018Z,60.73
2022-08-08T00:14:48.218Z,60.99
2022-08-08T00:17:48.054Z,61.06
2022-08-08T00:20:25.571Z,60.50
2022-08-08T00:22:52.430Z,62.56
2022-08-08T00:25:20.464Z,63.13
2022-08-08T00:27:45.394Z,63.25
2022-08-08T00:30:11.137Z,63.44
2022-08-08T00:32:41.596Z,63.18
2022-08-08T00:35:30.015Z,62.24
2022-08-08T00:38:04.813Z,62.01
2022-08-08T00:41:10.963Z,62.73
2022-08-08T00:43:40.592Z,65.31
2022-08-08T00:46:16.395Z,63.45
2022-08-08T00:49:01.539Z,64.33
2022-08-08T00:51:38.391Z,63.56
2022-08-08T00:54:18.568Z,63.15
2022-08-08T00:57:19.902Z,64.10
2022-08-08T01:00:05.022Z,64.99
2022-08-08T01:03:58.917Z,66.12
2022-08-08T01:05:59.570Z,66.98
2022-08-08T01:09:36.735Z,65.46
2022-08-08T01:12:29.547Z,64.39
2022-08-08T01:15:43.341Z,65.91
2022-08-08T01:18:54.391Z,65.68
2022-08-08T01:22:10.002Z,66.18
2022-08-08T01:24:28.841Z,65.71
2022-08-08T01:27:21.277Z,66.74
2022-08-08T01:30:22.931Z,64.47
2022-08-08T01:33:24.061Z,65.00
2022-08-08T01:36:13.379Z,66.28
2022-08-08T01:39:00.854Z,67.52
2022-08-08T01:41:34.281Z,68.30
2022-08-08T01:44:12.639Z,67.92
2022-08-08T01:48:16.346Z,65.26
2022-08-08T01:50:36.322Z,65.33
2022-08-08T01:55:16.096Z,66.34
2022-08-08T01:56:28.908Z,68.04
2022-08-08T01:58:52.625Z,68.57
2022-08-08T02:01:28.120Z,68.09
2022-08-08T02:04:29.615Z,66.90
2022-08-08T02:07:04.779Z,66.31
2022-08-08T02:10:03.820Z,67.44
2022-08-08T02:12:34.907Z,69.54
2022-08-08T02:15:12.452Z,68.23
2022-08-08T02:17:53.696Z,67.56
2022-08-08T02:21:01.138Z,67.15
2022-08-08T02:23:32.015Z,68.58
2022-08-08T02:26:02.878Z,69.18
2022-08-08T02:28:51.955Z,69.35
2022-08-08T02:31:58.262Z,69.90
2022-08-08T02:35:08.184Z,67.91
2022-08-08T02:37:58.580Z,68.55
2022-08-08T02:40:30.964Z,68.11
2022-08-08T02:44:38.439Z,69.48
2022-08-08T02:46:22.785Z,69.25
2022-08-08T02:49:14.500Z,68.24
2022-08-08T02:51:57.012Z,70.52
2022-08-08T02:54:50.257Z,70.73
2022-08-08T02:57:40.624Z,71.75
2022-08-08T03:00:32.315Z,70.81
2022-08-08T03:05:00.750Z,70.82
2022-08-08T03:06:35.624Z,70.33
2022-08-08T03:09:06.223Z,71.43
2022-08-08T03:12:02.152Z,69.90
2022-08-08T03:15:58.358Z,71.88
2022-08-08T03:18:04.824Z,72.85
2022-08-08T03:20:51.454Z,71.47
2022-08-08T03:23:17.682Z,72.77
2022-08-08T03:25:41.081Z,72.93
2022-08-08T03:28:07.210Z,72.04
2022-08-08T03:30:28.977Z,72.48
2022-08-08T03:33:55.815Z,72.16
2022-08-08T03:35:55.226Z,70.56
2022-08-08T03:38:56.355Z,70.09
2022-08-08T03:41:08.802Z,71.86
2022-08-08T03:43:59.662Z,72.97
2022-08-08T03:46:21.332Z,73.78
2022-08-08T03:49:38.283Z,74.42
2022-08-08T03:51:51.458Z,75.82
2022-08-08T03:54:15.365Z,73.02
2022-08-08T03:56:46.350Z,73.91
2022-08-08T03:59:08.198Z,72.25
2022-08-08T04:02:31.722Z,71.20
2022-08-08T04:04:30.690Z,72.88
2022-08-08T04:06:57.438Z,73.76
2022-08-08T04:09:23.290Z,73.07
2022-08-08T04:11:59.046Z,74.27
2022-08-08T04:14:35.736Z,74.60
2022-08-08T04:16:57.992Z,72.76
2022-08-08T04:19:23.988Z,72.33
2022-08-08T04:21:46.780Z,71.52
2022-08-08T04:24:19.175Z,71.10
2022-08-08T04:26:57.241Z,70.83
2022-08-08T04:29:19.468Z,72.54
2022-08-08T04:31:58.634Z,75.38
2022-08-08T04:34:21.361Z,74.53
2022-08-08T04:36:48.308Z,73.46
2022-08-08T04:40:03.378Z,72.59
2022-08-08T04:41:53.095Z,72.69
2022-08-08T04:44:17.647Z,72.99
2022-08-08T04:46:42.486Z,75.06
2022-08-08T04:49:06.338Z,74.82
2022-08-08T04:51:55.343Z,73.56
2022-08-08T04:54:38.953Z,74.94
2022-08-08T04:56:56.036Z,75.65
2022-08-08T04:59:19.253Z,75.49
2022-08-08T05:01:49.001Z,76.66
2022-08-08T05:04:12.658Z,74.67
2022-08-08T05:06:36.456Z,73.63
2022-08-08T05:09:02.795Z,74.68
2022-08-08T05:11:27.295Z,76.12
2022-08-08T05:13:58.462Z,76.53
2022-08-08T05:16:55.075Z,75.87
2022-08-08T05:19:05.093Z,75.86
2022-08-08T05:21:26.767Z,75.77
2022-08-08T05:23:49.443Z,75.62
2022-08-08T05:26:14.176Z,76.29
2022-08-08T05:28:55.837Z,76.03
2022-08-08T05:32:02.436Z,75.81
2022-08-08T05:33:58.795Z,75.43
2022-08-08T05:36:27.903Z,76.08
2022-08-08T05:38:52.353Z,75.34
2022-08-08T05:41:17.873Z,74.93
2022-08-08T05:44:03.238Z,74.53
2022-08-08T05:46:27.347Z,74.82
2022-08-08T05:48:52.058Z,74.45
2022-08-08T05:51:15.603Z,74.31
2022-08-08T05:54:25.661Z,73.48
2022-08-08T05:56:20.468Z,73.82
2022-08-08T05:58:57.033Z,73.55
2022-08-08T06:01:55.750Z,73.20
2022-08-08T06:04:13.925Z,72.28
2022-08-08T06:06:49.237Z,72.47
2022-08-08T06:10:00.491Z,71.77
2022-08-08T06:12:00.538Z,71.96
2022-08-08T06:14:22.940Z,71.83
2022-08-08T06:16:45.362Z,71.55
2022-08-08T06:19:16.859Z,71.10
2022-08-08T06:21:48.825Z,70.69
2022-08-08T06:24:22.775Z,70.46
2022-08-08T06:26:57.216Z,70.72
2022-08-08T06:29:56.464Z,70.38
2022-08-08T06:32:17.198Z,70.10
2022-08-08T06:34:39.701Z,69.16
2022-08-08T06:37:10.733Z,68.70
2022-08-08T06:39:55.893Z,67.73
2022-08-08T06:42:18.822Z,67.39
2022-08-08T06:44:42.602Z,67.04
2022-08-08T06:47:04.384Z,66.86
2022-08-08T06:49:56.822Z,65.89
2022-08-08T06:52:10.843Z,64.38
2022-08-08T06:54:37.925Z,63.21
2022-08-08T06:57:02.289Z,63.20
2022-08-08T06:59:27.117Z,62.67
2022-08-08T07:02:27.323Z,59.98
2022-08-08T07:05:01.999Z,60.30
2022-08-08T07:07:52.385Z,59.08
2022-08-08T07:10:20.725Z,58.66
2022-08-08T07:12:47.823Z,56.02
2022-08-08T07:15:32.108Z,54.62
2022-08-08T07:18:37.179Z,54.55
2022-08-08T07:20:51.393Z,53.41
2022-08-08T07:24:01.388Z,53.68
2022-08-08T07:26:32.914Z,54.22
2022-08-08T07:28:58.686Z,54.33
2022-08-08T07:31:28.572Z,50.90
2022-08-08T07:33:53.338Z,51.35
2022-08-08T07:36:22.906Z,51.43
2022-08-08T07:38:53.387Z,51.09
2022-08-08T07:41:24.822Z,50.63
2022-08-08T07:43:53.632Z,49.85
2022-08-08T07:46:23.776Z,49.26
2022-08-08T07:48:51.984Z,48.75
2022-08-08T07:51:23.101Z,48.76
2022-08-08T07:54:26.903Z,47.87
2022-08-08T07:57:17.026Z,48.48
2022-08-08T08:00:16.293Z,47.98
2022-08-08T08:02:43.013Z,47.11
2022-08-08T08:05:21.486Z,46.40
2022-08-08T08:07:53.116Z,46.13
2022-08-08T08:10:18.611Z,45.70
2022-08-08T08:12:54.577Z,45.81
2022-08-08T08:15:21.679Z,45.35
2022-08-08T08:17:48.515Z,44.61
2022-08-08T08:20:11.294Z,44.27
2022-08-08T08:22:33.761Z,42.37
2022-08-08T08:24:55.514Z,43.54
2022-08-08T08:27:19.977Z,42.99
2022-08-08T08:29:42.304Z,42.08
2022-08-08T08:32:05.638Z,43.14
2022-08-08T08:34:32.795Z,42.36
2022-08-08T08:36:55.468Z,41.68
2022-08-08T08:39:23.067Z,40.90
2022-08-08T08:41:45.956Z,40.92
2022-08-08T08:44:14.618Z,41.13
2022-08-08T08:46:37.713Z,40.43
2022-08-08T08:49:01.080Z,40.52
2022-08-08T08:51:26.820Z,39.36
2022-08-08T08:53:58.917Z,39.55
2022-08-08T08:56:25.106Z,38.22
2022-08-08T08:58:50.842Z,37.67
2022-08-08T09:01:15.273Z,37.66
2022-08-08T09:03:46.058Z,36.98
2022-08-08T09:06:26.849Z,36.62
2022-08-08T09:08:58.820Z,36.53
2022-08-08T09:11:21.677Z,36.50
2022-08-08T09:13:45.384Z,35.37
2022-08-08T09:16:09.444Z,36.18
2022-08-08T09:18:35.244Z,35.22
2022-08-08T09:21:59.989Z,33.88
2022-08-08T09:23:41.727Z,33.06
2022-08-08T09:26:14.475Z,34.03
2022-08-08T09:28:39.948Z,32.61
2022-08-08T09:31:12.522Z,33.70
2022-08-08T09:34:14.710Z,32.29
2022-08-08T09:36:23.579Z,32.90
2022-08-08T09:38:59.313Z,32.55
2022-08-08T09:42:14.716Z,32.31
2022-08-08T09:44:34.004Z,31.87
2022-08-08T09:47:05.625Z,32.08
2022-08-08T09:49:42.165Z,32.37
2022-08-08T09:52:16.185Z,31.59
2022-08-08T09:54:54.596Z,31.76
2022-08-08T09:57:46.546Z,32.40
2022-08-08T10:00:47.885Z,31.63
2022-08-08T10:03:07.304Z,31.20
2022-08-08T10:05:35.464Z,31.15
2022-08-08T10:08:00.050Z,30.76
2022-08-08T10:10:31.891Z,30.71
2022-08-08T10:12:57.417Z,30.14
2022-08-08T10:15:26.885Z,30.98
2022-08-08T10:18:06.161Z,29.66
2022-08-08T10:20:57.977Z,29.78
2022-08-08T10:23:42.168Z,29.43
2022-08-08T10:26:16.858Z,29.77
2022-08-08T10:29:22.746Z,29.42
2022-08-08T10:32:05.560Z,30.20
2022-08-08T10:34:29.407Z,30.07
2022-08-08T10:36:53.877Z,30.02
2022-08-08T10:39:23.358Z,29.20
2022-08-08T10:42:15.129Z,29.09
2022-08-08T10:44:41.758Z,29.17
2022-08-08T10:47:13.537Z,28.87
2022-08-08T10:50:00.479Z,28.40
2022-08-08T10:52:43.191Z,27.52
2022-08-08T10:55:10.912Z,28.19
2022-08-08T10:57:50.480Z,28.32
2022-08-08T11:00:26.080Z,28.47
2022-08-08T11:02:47.940Z,28.18
2022-08-08T11:05:14.944Z,27.46
2022-08-08T11:08:31.441Z,27.39
2022-08-08T11:10:29.250Z,27.85
2022-08-08T11:13:25.490Z,27.98
2022-08-08T11:15:52.444Z,27.73
2022-08-08T11:18:19.877Z,28.27
2022-08-08T11:20:42.030Z,28.50
2022-08-08T11:23:17.238Z,27.89
2022-08-08T11:25:53.035Z,27.11
2022-08-08T11:28:23.356Z,26.83
2022-08-08T11:30:50.525Z,27.83
2022-08-08T11:33:14.706Z,27.43
2022-08-08T11:35:43.404Z,27.63
2022-08-08T11:38:36.925Z,27.96
2022-08-08T11:40:52.377Z,27.91
2022-08-08T11:43:16.778Z,26.76
2022-08-08T11:46:06.868Z,27.19
2022-08-08T11:48:24.277Z,26.56
2022-08-08T11:50:52.579Z,26.67
2022-08-08T11:53:14.482Z,26.58
2022-08-08T11:55:48.038Z,25.51
2022-08-08T11:58:14.563Z,26.29
2022-08-08T12:00:45.234Z,26.04
2022-08-08T12:03:17.218Z,26.35
2022-08-08T12:05:42.871Z,25.87
2022-08-08T12:08:05.018Z,26.19
2022-08-08T12:10:30.193Z,26.73
2022-08-08T12:13:04.022Z,26.87
2022-08-08T12:15:39.951Z,25.65
2022-08-08T12:18:21.220Z,25.51
2022-08-08T12:20:46.496Z,25.75
2022-08-08T12:23:14.034Z,25.16
2022-08-08T12:25:52.701Z,26.00
2022-08-08T12:28:18.931Z,25.36
2022-08-08T12:30:48.010Z,24.88
2022-08-08T12:33:37.088Z,23.94
2022-08-08T12:36:10.318Z,23.29
2022-08-08T12:38:47.804Z,23.47
2022-08-08T12:41:34.051Z,22.87
2022-08-08T12:44:04.821Z,22.21
2022-08-08T12:46:28.677Z,21.70
2022-08-08T12:49:22.193Z,20.98
2022-08-08T12:51:49.933Z,20.70
2022-08-08T12:54:25.177Z,20.78
2022-08-08T12:56:47.306Z,19.96
2022-08-08T12:59:18.197Z,18.70
2022-08-08T13:01:49.345Z,18.77
2022-08-08T13:04:18.645Z,18.33
2022-08-08T13:07:11.838Z,18.65
2022-08-08T13:09:57.614Z,17.89
2022-08-08T13:12:32.976Z,17.48
2022-08-08T13:14:57.780Z,16.99
2022-08-08T13:17:53.898Z,17.58
2022-08-08T13:20:18.220Z,17.14
2022-08-08T13:22:40.077Z,17.26
2022-08-08T13:25:03.123Z,16.86
2022-08-08T13:27:35.591Z,16.66
2022-08-08T13:30:03.790Z,16.75
2022-08-08T13:32:28.192Z,16.14
2022-08-08T13:34:52.478Z,16.23
2022-08-08T13:37:19.563Z,16.78
2022-08-08T13:39:50.973Z,16.16
2022-08-08T13:42:12.543Z,16.13
2022-08-08T13:44:35.901Z,16.06
2022-08-08T13:47:02.052Z,15.90
2022-08-08T13:50:39.646Z,16.51
2022-08-08T13:52:09.429Z,15.90
2022-08-08T13:54:34.452Z,15.88
2022-08-08T13:57:12.473Z,16.48
2022-08-08T13:59:48.581Z,16.93
2022-08-08T14:02:14.211Z,16.25
2022-08-08T14:04:36.497Z,16.09
2022-08-08T14:07:03.241Z,16.27
2022-08-08T14:10:04.212Z,15.76
2022-08-08T14:12:26.944Z,16.11
2022-08-08T14:14:49.674Z,16.24
2022-08-08T14:17:22.527Z,16.54
2022-08-08T14:20:15.748Z,16.95
2022-08-08T14:22:50.477Z,16.38
2022-08-08T14:25:15.390Z,16.98
2022-08-08T14:27:43.682Z,16.80
2022-08-08T14:30:21.389Z,16.46
2022-08-08T14:32:53.417Z,16.19
2022-08-08T14:35:19.043Z,16.76
2022-08-08T14:37:59.744Z,16.97
2022-08-08T14:40:25.605Z,17.12
2022-08-08T14:42:56.596Z,17.23
2022-08-08T14:45:18.726Z,17.15
2022-08-08T14:47:57.391Z,16.52
2022-08-08T14:50:38.181Z,16.37
2022-08-08T14:53:06.863Z,16.91
2022-08-08T14:55:41.317Z,16.11
2022-08-08T14:58:11.622Z,16.66
2022-08-08T15:00:37.955Z,16.69
2022-08-08T15:03:14.551Z,16.80
2022-08-08T15:05:52.190Z,16.33
2022-08-08T15:08:22.402Z,16.34
2022-08-08T15:10:55.099Z,16.54
2022-08-08T15:13:16.627Z,16.06
2022-08-08T15:16:02.781Z,15.96
2022-08-08T15:18:23.792Z,16.02
2022-08-08T15:20:51.524Z,16.47
2022-08-08T15:23:16.440Z,16.66
2022-08-08T15:25:38.149Z,16.26
2022-08-08T15:28:32.773Z,16.55
2022-08-08T15:30:42.961Z,16.11
2022-08-08T15:33:04.522Z,16.67
2022-08-08T15:35:26.043Z,17.00
2022-08-08T15:37:51.365Z,16.07
2022-08-08T15:40:15.086Z,16.84
2022-08-08T15:42:37.417Z,16.47
2022-08-08T15:45:02.242Z,16.34
2022-08-08T15:47:24.301Z,16.65
2022-08-08T15:49:48.819Z,16.68
2022-08-08T15:52:13.863Z,16.37
2022-08-08T15:54:38.579Z,16.90
2022-08-08T15:57:01.999Z,17.03
2022-08-08T16:00:06.361Z,16.77
2022-08-08T16:02:10.020Z,17.20
2022-08-08T16:04:34.742Z,17.73
2022-08-08T16:06:56.835Z,17.86
2022-08-08T16:13:02.254Z,17.59
2022-08-08T16:13:02.573Z,17.73
2022-08-08T16:14:53.673Z,17.25
2022-08-08T16:17:16.060Z,17.52
2022-08-08T16:20:00.858Z,17.30
2022-08-08T16:22:30.041Z,17.53
2022-08-08T16:24:54.348Z,17.56
2022-08-08T16:27:18.103Z,17.68
2022-08-08T16:30:14.341Z,17.58
2022-08-08T16:32:25.361Z,17.63
2022-08-08T16:34:49.545Z,17.84
2022-08-08T16:37:11.838Z,17.43
2022-08-08T16:40:02.211Z,17.57
2022-08-08T16:42:19.222Z,17.90
2022-08-08T16:44:40.844Z,17.33
2022-08-08T16:47:16.427Z,17.83
2022-08-08T16:49:38.698Z,17.76
2022-08-08T16:55:02.583Z,18.17
2022-08-08T16:55:03.842Z,18.13
2022-08-08T16:58:14.495Z,18.28
2022-08-08T17:00:08.957Z,18.11
2022-08-08T17:02:37.794Z,17.87
2022-08-08T17:05:01.490Z,18.25
2022-08-08T17:07:24.795Z,18.17
2022-08-08T17:09:52.066Z,18.51
2022-08-08T17:12:18.481Z,18.52
2022-08-08T17:14:43.995Z,18.37
2022-08-08T17:17:41.917Z,18.65
2022-08-08T17:19:49.533Z,19.12
2022-08-08T17:22:12.440Z,19.14
2022-08-08T17:24:34.563Z,18.87
2022-08-08T17:26:59.285Z,19.73
2022-08-08T17:29:24.837Z,19.89
2022-08-08T17:31:47.237Z,20.14
2022-08-08T17:34:48.863Z,20.59
2022-08-08T17:37:02.789Z,20.53
2022-08-08T17:40:05.067Z,20.78
2022-08-08T17:42:07.094Z,21.04
2022-08-08T17:44:28.564Z,21.26
2022-08-08T17:46:51.057Z,21.21
2022-08-08T17:49:16.561Z,21.06
2022-08-08T17:51:51.758Z,21.43
2022-08-08T17:54:22.277Z,21.23
2022-08-08T17:56:47.851Z,21.23
2022-08-08T17:59:13.199Z,21.07
2022-08-08T18:01:56.021Z,21.11
2022-08-08T18:04:28.821Z,21.37
2022-08-08T18:06:56.518Z,21.90
2022-08-08T18:09:19.049Z,21.96
2022-08-08T18:11:43.108Z,22.10
2022-08-08T18:14:04.816Z,22.56
2022-08-08T18:16:45.389Z,22.79
2022-08-08T18:19:18.004Z,22.94
2022-08-08T18:22:01.032Z,22.99
2022-08-08T18:24:25.345Z,23.49
2022-08-08T18:26:53.646Z,24.11
2022-08-08T18:29:16.880Z,24.36
2022-08-08T18:31:41.352Z,24.91
2022-08-08T18:34:12.235Z,26.23
2022-08-08T18:36:47.962Z,26.59
2022-08-08T18:39:09.447Z,27.39
2022-08-08T18:41:51.244Z,28.05
2022-08-08T18:44:19.665Z,28.39
2022-08-08T18:46:55.988Z,28.71
2022-08-08T18:49:19.405Z,29.48
2022-08-08T18:51:53.187Z,29.72
2022-08-08T18:54:22.867Z,29.70
2022-08-08T18:56:53.727Z,30.97
2022-08-08T18:59:15.453Z,30.59
2022-08-08T19:02:25.965Z,31.00
2022-08-08T19:04:18.437Z,31.39
2022-08-08T19:06:40.554Z,31.74
2022-08-08T19:09:13.514Z,32.99
2022-08-08T19:11:36.352Z,33.29
2022-08-08T19:13:58.933Z,33.19
2022-08-08T19:16:20.708Z,33.26
2022-08-08T19:18:51.802Z,33.50
2022-08-08T19:21:30.061Z,33.88
2022-08-08T19:23:52.991Z,33.88
2022-08-08T19:26:30.804Z,34.51
2022-08-08T19:28:52.775Z,34.23
2022-08-08T19:31:16.811Z,34.44
2022-08-08T19:33:51.869Z,34.82
2022-08-08T19:36:27.370Z,35.07
2022-08-08T19:38:51.291Z,35.87
2022-08-08T19:41:12.801Z,36.77
2022-08-08T19:43:56.272Z,36.46
2022-08-08T19:46:24.057Z,36.37
2022-08-08T19:48:54.938Z,36.79
2022-08-08T19:51:16.730Z,37.50
2022-08-08T19:53:55.412Z,37.69
2022-08-08T19:56:39.349Z,38.17
2022-08-08T19:58:58.602Z,38.99
2022-08-08T20:01:25.779Z,40.05
2022-08-08T20:04:02.538Z,40.73
2022-08-08T20:06:24.569Z,40.03
2022-08-08T20:08:48.306Z,40.32
2022-08-08T20:11:14.735Z,40.96
2022-08-08T20:14:32.760Z,40.29
2022-08-08T20:16:19.671Z,40.14
2022-08-08T20:18:53.314Z,40.93
2022-08-08T20:21:15.968Z,42.11
2022-08-08T20:23:45.359Z,42.70
2022-08-08T20:26:07.858Z,43.13
2022-08-08T20:28:33.014Z,42.45
2022-08-08T20:30:56.577Z,43.07
2022-08-08T20:35:57.518Z,42.93
2022-08-08T20:38:29.084Z,42.85
2022-08-08T20:40:53.432Z,43.39
2022-08-08T20:43:22.934Z,43.61
2022-08-08T20:46:03.235Z,43.36
2022-08-08T20:48:26.218Z,43.63
2022-08-08T20:50:49.813Z,43.76
2022-08-08T20:53:20.329Z,43.88
2022-08-08T20:55:56.402Z,44.34
2022-08-08T20:58:23.052Z,45.39
2022-08-08T21:00:44.821Z,45.44
2022-08-08T21:03:06.575Z,45.00
2022-08-08T21:05:31.879Z,44.94
2022-08-08T21:08:37.189Z,45.54
2022-08-08T21:10:35.019Z,46.53
2022-08-08T21:12:56.556Z,46.74
2022-08-08T21:16:06.484Z,46.62
2022-08-08T21:18:00.763Z,46.88
2022-08-08T21:20:22.388Z,47.31
2022-08-08T21:22:55.789Z,46.70
2022-08-08T21:25:19.817Z,46.79
2022-08-08T21:28:13.295Z,47.76
2022-08-08T21:30:24.554Z,49.63
2022-08-08T21:32:52.204Z,48.51
2022-08-08T21:36:14.999Z,49.78
2022-08-08T21:38:04.077Z,50.05
2022-08-08T21:40:31.087Z,49.42
2022-08-08T21:42:53.237Z,49.66
2022-08-08T21:45:20.909Z,49.85
2022-08-08T21:48:00.707Z,49.97
2022-08-08T21:50:37.623Z,50.17
2022-08-08T21:54:27.358Z,49.29
2022-08-08T21:56:28.222Z,49.66
2022-08-08T21:58:24.840Z,50.30
2022-08-08T22:00:54.881Z,50.30
2022-08-08T22:03:17.836Z,51.70
2022-08-08T22:05:41.454Z,52.60
2022-08-08T22:08:03.479Z,51.29
2022-08-08T22:10:32.020Z,52.22
2022-08-08T22:12:57.395Z,51.94
2022-08-08T22:15:21.967Z,52.12
2022-08-08T22:17:45.681Z,53.22
2022-08-08T22:20:10.442Z,53.36
2022-08-08T22:22:37.948Z,53.95
2022-08-08T22:24:59.937Z,52.96
2022-08-08T22:27:38.479Z,52.96
2022-08-08T22:30:03.765Z,53.89
2022-08-08T22:32:27.761Z,53.40
2022-08-08T22:34:51.167Z,53.22
2022-08-08T22:37:15.002Z,54.43
2022-08-08T22:40:00.724Z,53.69
2022-08-08T22:42:23.915Z,54.12
2022-08-08T22:44:48.998Z,54.59
2022-08-08T22:47:18.037Z,54.60
2022-08-08T22:49:40.609Z,55.92
2022-08-08T22:52:02.205Z,55.98
2022-08-08T22:54:31.289Z,56.01
2022-08-08T22:57:08.711Z,56.66
2022-08-08T22:59:36.155Z,56.46
2022-08-08T23:02:12.828Z,57.93
2022-08-08T23:04:34.831Z,57.25
2022-08-08T23:07:02.946Z,56.45
2022-08-08T23:09:30.678Z,57.19
2022-08-08T23:12:27.592Z,57.80
2022-08-08T23:14:33.898Z,59.08
2022-08-08T23:16:59.568Z,58.86
2022-08-08T23:19:21.293Z,59.75
2022-08-08T23:21:43.151Z,59.48
2022-08-08T23:24:08.436Z,60.38
2022-08-08T23:26:30.687Z,58.43
2022-08-08T23:28:52.955Z,60.19
2022-08-08T23:31:14.746Z,59.66
2022-08-08T23:34:16.697Z,59.79
2022-08-08T23:36:20.699Z,59.38
2022-08-08T23:38:52.766Z,60.22
2022-08-08T23:41:22.770Z,60.60
2022-08-08T23:43:47.776Z,62.26
2022-08-08T23:49:03.602Z,61.50
2022-08-08T23:49:07.325Z,61.51
2022-08-08T23:51:41.863Z,59.98
2022-08-08T23:54:43.548Z,60.80
2022-08-08T23:56:56.810Z,62.55
2022-08-08T23:59:19.474Z,63.30
